createdAt,value
2022-12-15T00:04:41.071Z,4.50
2022-12-15T00:10:03.307Z,4.50
2022-12-15T00:15:25.091Z,4.10
2022-12-15T00:20:45.732Z,4.50
2022-12-15T00:26:08.126Z,4.80
2022-12-15T00:31:28.972Z,4.20
2022-12-15T00:36:50.109Z,4.70
2022-12-15T00:41:55.053Z,5.03
2022-12-15T00:46:58.767Z,4.53
2022-12-15T00:52:19.630Z,4.93
2022-12-15T00:57:42.092Z,5.60
2022-12-15T01:03:03.133Z,5.40
2022-12-15T01:08:24.177Z,5.80
2022-12-15T01:13:46.425Z,5.80
2022-12-15T01:19:10.795Z,5.83
2022-12-15T01:24:14.344Z,5.57
2022-12-15T01:29:19.271Z,5.50
2022-12-15T01:34:23.154Z,5.77
2022-12-15T01:39:46.801Z,5.18
2022-12-15T01:44:55.267Z,5.63
2022-12-15T01:49:58.916Z,5.47
2022-12-15T01:55:02.648Z,5.53
2022-12-15T02:00:10.038Z,4.78
2022-12-15T02:05:13.677Z,5.30
2022-12-15T02:10:17.401Z,5.97
2022-12-15T02:15:29.046Z,5.47
2022-12-15T02:20:47.740Z,6.20
2022-12-15T02:26:19.243Z,6.17
2022-12-15T02:31:49.843Z,5.27
2022-12-15T02:36:59.325Z,6.20
2022-12-15T02:42:02.753Z,5.53
2022-12-15T02:47:33.814Z,6.00
2022-12-15T02:52:51.799Z,7.03
2022-12-15T02:57:59.846Z,6.10
2022-12-15T03:03:05.704Z,5.73
2022-12-15T03:08:09.516Z,6.97
2022-12-15T03:13:14.338Z,6.47
2022-12-15T03:18:19.555Z,7.20
2022-12-15T03:23:23.341Z,8.13
2022-12-15T03:28:26.927Z,11.27
2022-12-15T03:33:34.057Z,10.07
2022-12-15T03:38:37.831Z,11.50
2022-12-15T03:43:41.367Z,9.13
2022-12-15T03:48:46.282Z,8.80
2022-12-15T03:53:49.710Z,8.30
2022-12-15T03:58:53.118Z,7.50
2022-12-15T04:04:00.849Z,8.33
2022-12-15T04:09:04.685Z,7.17
2022-12-15T04:14:08.246Z,7.00
2022-12-15T04:19:30.414Z,6.93
2022-12-15T04:24:51.177Z,6.80
2022-12-15T04:30:12.199Z,7.47
2022-12-15T04:35:34.460Z,6.60
2022-12-15T04:40:55.767Z,6.00
2022-12-15T04:46:16.660Z,7.30
2022-12-15T04:51:38.846Z,6.57
2022-12-15T04:56:59.599Z,6.77
2022-12-15T05:02:20.546Z,6.73
2022-12-15T05:07:43.371Z,6.20
2022-12-15T05:13:03.906Z,6.97
2022-12-15T05:18:24.706Z,6.53
2022-12-15T05:23:47.066Z,6.43
2022-12-15T05:29:08.120Z,6.80
2022-12-15T05:34:11.531Z,6.33
2022-12-15T05:39:16.541Z,5.95
2022-12-15T05:44:20.564Z,7.10
2022-12-15T05:49:24.654Z,5.43
2022-12-15T05:54:29.628Z,5.83
2022-12-15T05:59:33.162Z,5.53
2022-12-15T06:04:36.903Z,6.70
2022-12-15T06:09:42.040Z,6.20
2022-12-15T06:14:45.694Z,6.03
2022-12-15T06:19:49.212Z,6.00
2022-12-15T06:24:54.134Z,6.17
2022-12-15T06:29:57.906Z,7.17
2022-12-15T06:35:02.153Z,6.67
2022-12-15T06:40:09.603Z,6.70
2022-12-15T06:45:13.203Z,6.83
2022-12-15T06:50:16.762Z,6.50
2022-12-15T06:55:21.679Z,6.90
2022-12-15T07:00:25.386Z,7.20
2022-12-15T07:05:28.955Z,6.60
2022-12-15T07:10:34.040Z,6.63
2022-12-15T07:15:37.717Z,7.10
2022-12-15T07:20:41.348Z,6.87
2022-12-15T07:25:46.354Z,6.73
2022-12-15T07:30:49.892Z,7.47
2022-12-15T07:35:57.019Z,6.80
2022-12-15T07:41:04.893Z,4.93
2022-12-15T07:46:09.283Z,6.50
2022-12-15T07:51:19.360Z,6.25
2022-12-15T07:56:25.463Z,7.10
2022-12-15T08:01:29.120Z,7.07
2022-12-15T08:06:32.547Z,6.63
2022-12-15T08:11:37.809Z,6.63
2022-12-15T08:16:41.408Z,5.33
2022-12-15T08:21:46.905Z,6.20
2022-12-15T08:26:53.138Z,5.70
2022-12-15T08:31:56.659Z,6.00
2022-12-15T08:37:00.270Z,6.20
2022-12-15T08:42:05.391Z,6.77
2022-12-15T08:47:09.007Z,7.57
2022-12-15T08:52:13.294Z,7.87
2022-12-15T08:57:18.328Z,5.80
2022-12-15T09:02:22.483Z,6.40
2022-12-15T09:07:26.202Z,5.55
2022-12-15T09:12:31.140Z,6.80
2022-12-15T09:17:34.609Z,5.17
2022-12-15T09:22:38.354Z,6.20
2022-12-15T09:27:43.432Z,5.37
2022-12-15T09:32:47.176Z,6.17
2022-12-15T09:37:51.997Z,6.03
2022-12-15T09:43:25.659Z,5.77
2022-12-15T09:48:25.103Z,5.30
2022-12-15T09:53:54.159Z,6.13
2022-12-15T09:59:01.493Z,5.53
2022-12-15T10:04:12.825Z,5.53
2022-12-15T10:09:21.667Z,6.40
2022-12-15T10:14:32.329Z,7.50
2022-12-15T10:19:43.273Z,5.57
2022-12-15T10:30:15.268Z,6.70
2022-12-15T10:35:22.352Z,7.00
2022-12-15T10:40:50.224Z,6.70
2022-12-15T10:46:05.719Z,8.10
2022-12-15T10:56:26.120Z,7.50
2022-12-15T11:01:36.545Z,6.30
2022-12-15T11:06:44.038Z,6.43
2022-12-15T11:12:11.966Z,8.50
2022-12-15T11:17:19.663Z,8.40
2022-12-15T11:22:32.904Z,6.67
2022-12-15T11:27:39.590Z,7.03
2022-12-15T11:32:49.103Z,7.70
2022-12-15T11:37:58.079Z,7.33
2022-12-15T11:43:21.112Z,7.37
2022-12-15T11:48:33.868Z,8.00
2022-12-15T11:54:02.088Z,9.60
2022-12-15T11:59:22.503Z,9.73
2022-12-15T12:04:31.868Z,10.50
2022-12-15T12:09:38.167Z,9.73
2022-12-15T12:14:51.630Z,9.40
2022-12-15T12:20:03.864Z,8.50
2022-12-15T12:25:16.128Z,9.18
2022-12-15T12:30:21.656Z,10.07
2022-12-15T12:35:33.612Z,7.97
2022-12-15T12:40:53.696Z,9.10
2022-12-15T12:46:00.316Z,9.93
2022-12-15T12:51:28.606Z,9.07
2022-12-15T12:56:41.729Z,10.17
2022-12-15T13:01:45.304Z,10.33
2022-12-15T13:07:05.888Z,8.00
2022-12-15T13:12:53.685Z,9.73
2022-12-15T13:23:44.214Z,8.10
2022-12-15T13:28:53.414Z,8.50
2022-12-15T13:34:13.805Z,6.07
2022-12-15T13:39:50.199Z,7.90
2022-12-15T13:44:58.998Z,7.63
2022-12-15T13:50:08.709Z,6.50
2022-12-15T13:55:27.247Z,8.40
2022-12-15T14:00:33.863Z,7.63
2022-12-15T14:05:39.161Z,8.53
2022-12-15T14:10:44.855Z,8.47
2022-12-15T14:15:56.731Z,7.83
2022-12-15T14:21:01.711Z,6.00
2022-12-15T14:26:07.712Z,8.40
2022-12-15T14:31:18.539Z,6.43
2022-12-15T14:36:22.699Z,7.57
2022-12-15T14:41:28.972Z,7.50
2022-12-15T14:46:34.688Z,6.03
2022-12-15T14:51:44.279Z,7.53
2022-12-15T14:57:00.352Z,8.80
2022-12-15T15:02:14.765Z,9.87
2022-12-15T15:07:20.167Z,8.53
2022-12-15T15:12:25.077Z,7.93
2022-12-15T15:17:39.022Z,9.40
2022-12-15T15:22:44.272Z,8.97
2022-12-15T15:27:47.907Z,7.20
2022-12-15T15:32:57.440Z,9.23
2022-12-15T15:38:06.226Z,8.93
2022-12-15T15:43:13.115Z,9.13
2022-12-15T15:48:22.889Z,9.43
2022-12-15T15:53:26.741Z,8.97
2022-12-15T15:58:30.526Z,7.55
2022-12-15T16:03:36.264Z,10.00
2022-12-15T16:08:39.807Z,10.60
2022-12-15T16:13:43.355Z,7.87
2022-12-15T16:18:48.360Z,7.33
2022-12-15T16:23:51.988Z,8.67
2022-12-15T16:28:55.483Z,8.20
2022-12-15T16:34:00.629Z,7.73
2022-12-15T16:39:04.284Z,9.07
2022-12-15T16:44:12.830Z,9.03
2022-12-15T16:49:17.748Z,9.77
2022-12-15T16:54:24.492Z,9.00
2022-12-15T16:59:33.476Z,9.97
2022-12-15T17:04:39.468Z,10.00
2022-12-15T17:09:43.185Z,7.47
2022-12-15T17:14:47.250Z,8.03
2022-12-15T17:20:27.261Z,7.43
2022-12-15T17:25:27.174Z,10.63
2022-12-15T17:30:41.357Z,9.83
2022-12-15T17:35:47.280Z,9.73
2022-12-15T17:40:52.149Z,9.00
2022-12-15T17:45:56.027Z,8.10
2022-12-15T17:51:01.001Z,9.98
2022-12-15T17:56:04.927Z,9.80
2022-12-15T18:01:10.863Z,10.88
2022-12-15T18:06:16.715Z,9.37
2022-12-15T18:11:20.708Z,9.03
2022-12-15T18:16:24.177Z,9.50
2022-12-15T18:21:29.006Z,10.50
2022-12-15T18:26:38.091Z,9.20
2022-12-15T18:31:43.251Z,7.43
2022-12-15T18:36:48.076Z,10.37
2022-12-15T18:41:51.668Z,11.03
2022-12-15T18:46:56.006Z,9.70
2022-12-15T18:52:00.919Z,11.38
2022-12-15T18:57:04.462Z,10.33
2022-12-15T19:02:08.964Z,12.10
2022-12-15T19:12:20.889Z,8.00
2022-12-15T19:17:42.623Z,7.73
2022-12-15T19:22:49.004Z,10.27
2022-12-15T19:27:52.740Z,10.13
2022-12-15T19:32:56.777Z,10.93
2022-12-15T19:38:04.314Z,11.00
2022-12-15T19:43:07.839Z,11.00
2022-12-15T19:48:12.139Z,9.27
2022-12-15T19:53:22.878Z,10.75
2022-12-15T19:58:30.035Z,10.87
2022-12-15T20:03:34.531Z,12.17
2022-12-15T20:13:45.724Z,10.77
2022-12-15T20:18:50.948Z,12.80
2022-12-15T20:24:00.540Z,9.20
2022-12-15T20:29:04.855Z,8.47
2022-12-15T20:34:08.377Z,11.68
2022-12-15T20:39:21.684Z,11.97
2022-12-15T20:44:26.055Z,9.50
2022-12-15T20:49:29.686Z,12.73
2022-12-15T20:54:34.519Z,12.37
2022-12-15T20:59:37.974Z,13.77
2022-12-15T21:04:41.506Z,13.30
2022-12-15T21:09:46.278Z,12.20
2022-12-15T21:14:50.322Z,13.20
2022-12-15T21:19:54.924Z,13.43
2022-12-15T21:30:07.467Z,13.53
2022-12-15T21:35:14.391Z,13.70
2022-12-15T21:40:21.376Z,13.73
2022-12-15T21:45:26.828Z,12.37
2022-12-15T21:50:30.246Z,11.83
2022-12-15T21:55:35.374Z,11.57
2022-12-15T22:00:45.317Z,13.00
2022-12-15T22:05:48.980Z,11.47
2022-12-15T22:10:54.047Z,12.90
2022-12-15T22:15:58.267Z,11.93
2022-12-15T22:21:01.703Z,12.90
2022-12-15T22:26:06.693Z,12.03
2022-12-15T22:31:11.798Z,13.00
2022-12-15T22:36:15.166Z,12.87
2022-12-15T22:41:23.275Z,13.33
2022-12-15T22:46:27.078Z,13.30
2022-12-15T22:51:30.517Z,13.20
2022-12-15T22:56:40.724Z,12.50
2022-12-15T23:01:45.070Z,12.00
2022-12-15T23:06:48.775Z,13.35
2022-12-15T23:11:53.968Z,12.80
2022-12-15T23:16:58.525Z,11.63
2022-12-15T23:22:02.028Z,11.97
2022-12-15T23:27:10.658Z,10.95
2022-12-15T23:32:14.134Z,12.70
2022-12-15T23:37:17.578Z,12.67
2022-12-15T23:42:22.290Z,12.93
2022-12-15T23:52:30.112Z,13.10
